Time;durP1;ratioP1;P1;durP2;ratioP2;P2;SDS_P1;SDS_P2;PMS_P1;PMS_P2;Temp;Humidity;BMP_temperature;BMP_pressure;BME280_temperature;BME280_humidity;BME280_pressure;Samples;Min_cycle;Max_cycle;Signal;HPM_P1;HPM_P2
2020/12/12 00:03:12;;;;;;;31.37;25.70;;;;;;;3.46;66.26;95999.25;8366202;28;20207;-79
2020/12/12 00:07:15;;;;;;;27.77;24.70;;;;;;;3.45;66.36;96005.28;8366099;28;20303;-79
2020/12/12 00:11:17;;;;;;;27.27;23.43;;;;;;;3.50;66.47;96013.53;8366718;28;20222;-79
2020/12/12 00:15:19;;;;;;;27.03;21.90;;;;;;;3.58;65.61;96008.06;8367565;28;20214;-79
2020/12/12 00:19:21;;;;;;;27.90;23.80;;;;;;;3.48;66.22;96003.41;8369654;28;20195;-79
2020/12/12 00:23:23;;;;;;;25.80;22.73;;;;;;;3.46;66.50;96002.63;8368563;28;20201;-79
2020/12/12 00:27:25;;;;;;;26.23;22.63;;;;;;;3.40;66.62;95999.53;8370252;28;20548;-79
2020/12/12 00:31:27;;;;;;;25.00;21.60;;;;;;;3.31;66.97;95996.53;8370199;28;20208;-79
2020/12/12 00:35:29;;;;;;;21.73;19.00;;;;;;;3.29;67.23;95993.22;8369641;28;20578;-79
2020/12/12 00:39:31;;;;;;;23.87;20.53;;;;;;;3.05;67.55;95984.13;8371112;28;20215;-79
2020/12/12 00:43:34;;;;;;;23.57;21.00;;;;;;;3.07;67.41;96002.78;8373431;28;20207;-79
2020/12/12 00:47:35;;;;;;;22.20;19.20;;;;;;;3.26;67.17;95990.78;8371286;28;20211;-79
2020/12/12 00:51:37;;;;;;;22.37;19.23;;;;;;;3.07;67.67;95983.13;8368402;28;20232;-79
2020/12/12 00:55:40;;;;;;;20.80;18.37;;;;;;;3.24;66.81;95984.09;8368887;28;20224;-79
2020/12/12 00:59:42;;;;;;;21.77;19.40;;;;;;;3.15;67.07;95993.00;8350738;28;20206;-79
2020/12/12 01:03:44;;;;;;;22.30;19.23;;;;;;;3.14;67.10;95986.22;8349450;28;21087;-79
2020/12/12 01:07:46;;;;;;;20.03;17.93;;;;;;;3.28;66.92;95991.53;8334484;28;20204;-79
2020/12/12 01:11:51;;;;;;;23.23;19.83;;;;;;;3.01;67.48;95993.66;8333711;28;20251;-79
2020/12/12 01:15:53;;;;;;;24.90;20.10;;;;;;;3.06;67.38;95994.25;8334248;28;20594;-79
2020/12/12 01:19:55;;;;;;;21.67;19.40;;;;;;;3.19;67.26;95997.06;8334656;28;20196;-79
2020/12/12 01:23:59;;;;;;;21.77;19.23;;;;;;;3.42;66.30;95993.44;8335238;28;20200;-79
2020/12/12 01:28:01;;;;;;;22.00;19.43;;;;;;;3.12;67.88;96000.81;8332814;28;20215;-79
2020/12/12 01:32:03;;;;;;;22.67;20.27;;;;;;;3.03;67.67;96008.94;8331687;28;20212;-79
2020/12/12 01:36:06;;;;;;;24.80;21.10;;;;;;;3.01;68.32;96003.88;8331396;28;20565;-79
2020/12/12 01:40:07;;;;;;;24.80;21.33;;;;;;;3.01;68.46;96001.31;8332043;28;20196;-79
2020/12/12 01:44:10;;;;;;;23.60;20.60;;;;;;;3.17;67.76;96001.44;8341245;28;20549;-79
2020/12/12 01:48:11;;;;;;;23.23;20.73;;;;;;;3.11;67.88;95992.31;8345460;28;20212;-80
2020/12/12 01:52:14;;;;;;;24.67;21.67;;;;;;;3.11;67.75;96002.53;8341885;28;20235;-78
2020/12/12 01:56:16;;;;;;;26.30;21.90;;;;;;;3.22;67.47;95998.66;8363901;28;20702;-79
2020/12/12 02:00:19;;;;;;;25.77;21.57;;;;;;;3.04;67.86;96005.47;8364088;28;20200;-79
2020/12/12 02:04:22;;;;;;;24.67;21.40;;;;;;;3.08;68.12;96000.13;8365423;28;20239;-79
2020/12/12 02:08:24;;;;;;;23.07;20.43;;;;;;;2.83;69.09;95994.47;8364717;28;20200;-79
2020/12/12 02:12:27;;;;;;;25.90;22.50;;;;;;;3.02;68.64;95997.84;8364720;28;20196;-78
2020/12/12 02:16:30;;;;;;;24.13;21.53;;;;;;;3.12;68.18;95986.31;8365434;28;20224;-78
2020/12/12 02:20:33;;;;;;;27.00;21.73;;;;;;;3.20;67.61;95985.97;8370644;28;20206;-79
2020/12/12 02:24:35;;;;;;;24.03;21.43;;;;;;;3.30;67.03;95994.03;8370066;28;20208;-79
2020/12/12 02:28:46;;;;;;;23.97;21.37;;;;;;;3.22;67.86;95986.72;8370161;28;20203;-79
2020/12/12 02:32:49;;;;;;;25.23;22.27;;;;;;;3.16;67.39;95987.00;8370537;28;20195;-79
2020/12/12 02:36:51;;;;;;;24.83;22.07;;;;;;;3.18;67.95;95974.97;8380444;28;20246;-79
2020/12/12 02:40:53;;;;;;;25.83;23.00;;;;;;;3.16;68.15;95981.88;8378712;28;20543;-79
2020/12/12 02:44:55;;;;;;;27.30;22.27;;;;;;;3.04;69.05;95988.38;8380686;28;20200;-79
2020/12/12 02:48:58;;;;;;;26.13;23.33;;;;;;;3.25;68.68;95978.88;8382806;28;20210;-79
2020/12/12 02:53:00;;;;;;;27.00;24.13;;;;;;;3.20;68.98;95983.41;8384062;28;20235;-80
2020/12/12 02:57:03;;;;;;;29.23;23.97;;;;;;;3.10;69.66;95983.00;8380251;28;20224;-79
2020/12/12 03:01:04;;;;;;;27.07;23.80;;;;;;;3.13;69.79;95976.91;8369787;28;20208;-79
2020/12/12 03:05:07;;;;;;;28.03;23.83;;;;;;;3.12;69.81;95981.19;8369353;28;20599;-79
2020/12/12 03:09:09;;;;;;;26.17;23.37;;;;;;;3.32;69.29;95985.38;8369846;28;20534;-79
2020/12/12 03:13:11;;;;;;;28.30;24.63;;;;;;;3.21;70.17;95982.47;8368747;28;20246;-79
2020/12/12 03:17:13;;;;;;;27.67;24.73;;;;;;;3.22;69.19;95983.31;8370049;28;20224;-79
2020/12/12 03:21:15;;;;;;;28.97;25.40;;;;;;;3.43;69.32;95969.53;8370126;28;20196;-79
2020/12/12 03:25:16;;;;;;;27.67;24.67;;;;;;;3.28;69.54;95968.50;8369208;28;20200;-79
2020/12/12 03:29:19;;;;;;;29.10;26.00;;;;;;;3.24;69.86;95966.19;8372755;28;20200;-79
2020/12/12 03:33:21;;;;;;;29.37;26.27;;;;;;;3.15;69.95;95967.44;8386382;28;20204;-80
2020/12/12 03:37:23;;;;;;;31.60;26.20;;;;;;;3.32;69.44;95972.56;8387924;28;20230;-81
2020/12/12 03:41:25;;;;;;;30.93;26.30;;;;;;;3.44;68.68;95976.28;8386314;28;20639;-81
2020/12/12 03:45:28;;;;;;;28.40;25.33;;;;;;;3.36;69.12;95982.69;8384693;28;20206;-81
2020/12/12 03:49:30;;;;;;;27.43;24.47;;;;;;;3.67;68.47;95982.84;8379258;28;20240;-81
2020/12/12 03:53:32;;;;;;;30.17;25.23;;;;;;;3.48;68.29;95977.81;8356705;28;20196;-81
2020/12/12 03:57:34;;;;;;;27.77;24.77;;;;;;;3.45;68.82;95977.94;8373758;28;20227;-81
2020/12/12 04:01:37;;;;;;;27.27;24.37;;;;;;;3.48;68.37;95977.81;8371756;28;20204;-81
2020/12/12 04:05:43;;;;;;;29.80;26.60;;;;;;;3.62;68.09;95984.81;8341435;28;20352;-80
2020/12/12 04:09:45;;;;;;;26.63;23.80;;;;;;;3.58;68.26;95983.31;8340780;28;20185;-81
2020/12/12 04:13:47;;;;;;;28.03;24.93;;;;;;;3.45;68.46;95977.13;8340061;28;20558;-81
2020/12/12 04:17:50;;;;;;;31.73;26.50;;;;;;;3.07;70.28;95983.13;8341281;28;20220;-81
2020/12/12 04:21:52;;;;;;;31.03;27.17;;;;;;;3.19;69.98;95981.72;8340141;28;20204;-81
2020/12/12 04:25:54;;;;;;;29.43;26.23;;;;;;;3.08;68.94;95986.50;8341305;28;20204;-81
2020/12/12 04:29:56;;;;;;;29.40;26.20;;;;;;;3.15;69.78;95981.94;8341892;28;20204;-81
2020/12/12 04:34:00;;;;;;;30.13;26.50;;;;;;;3.08;69.82;95986.50;8341035;28;20644;-81
2020/12/12 04:38:01;;;;;;;28.50;25.40;;;;;;;3.26;69.19;95989.97;8342023;28;20228;-81
2020/12/12 04:42:04;;;;;;;30.97;27.43;;;;;;;2.86;70.62;95990.06;8342591;28;20524;-81
2020/12/12 04:46:07;;;;;;;29.97;26.73;;;;;;;3.01;69.94;95993.66;8342348;28;20204;-81
2020/12/12 04:50:10;;;;;;;29.80;26.57;;;;;;;3.06;69.77;95989.13;8323914;28;20228;-81
2020/12/12 04:54:18;;;;;;;30.73;27.43;;;;;;;3.24;69.25;95981.53;8343922;28;20200;-81
2020/12/12 04:58:21;;;;;;;29.83;25.70;;;;;;;2.97;69.96;95999.81;8343931;28;20224;-80
2020/12/12 05:02:23;;;;;;;28.80;25.63;;;;;;;3.10;69.55;95989.81;8343989;28;20639;-80
2020/12/12 05:06:29;;;;;;;31.13;26.97;;;;;;;2.88;70.16;95993.38;8346609;28;20258;-81
2020/12/12 05:10:36;;;;;;;30.10;26.67;;;;;;;3.24;68.77;95984.09;8346667;28;20195;-81
2020/12/12 05:14:39;;;;;;;30.33;26.40;;;;;;;3.19;69.10;95998.81;8347181;28;20197;-80
2020/12/12 05:18:42;;;;;;;30.47;27.07;;;;;;;2.74;70.27;95998.25;8347542;28;20220;-80
2020/12/12 05:22:45;;;;;;;29.03;25.37;;;;;;;2.94;69.59;95999.94;8346132;28;20216;-81
2020/12/12 05:26:47;;;;;;;28.20;25.20;;;;;;;2.81;70.58;95991.16;8348443;28;20522;-80
2020/12/12 05:30:50;;;;;;;28.53;25.33;;;;;;;2.73;70.63;95999.16;8350037;28;20209;-80
2020/12/12 05:34:53;;;;;;;26.73;23.80;;;;;;;3.09;69.70;95995.84;8349509;28;20208;-79
2020/12/12 05:38:57;;;;;;;27.17;24.20;;;;;;;3.30;68.97;95999.16;8348247;28;20246;-79
2020/12/12 05:43:01;;;;;;;29.17;24.93;;;;;;;3.14;69.24;95988.78;8349916;28;20207;-80
2020/12/12 05:47:03;;;;;;;27.50;23.63;;;;;;;3.33;68.64;96004.09;8352777;28;20209;-80
2020/12/12 05:51:04;;;;;;;29.07;25.63;;;;;;;3.29;68.64;96005.16;8352796;28;20327;-80
2020/12/12 05:55:07;;;;;;;26.50;23.80;;;;;;;3.31;69.05;96000.78;8351772;28;20219;-80
2020/12/12 05:59:09;;;;;;;26.50;23.40;;;;;;;3.56;68.16;95991.94;8350049;28;20229;-80
2020/12/12 06:03:21;;;;;;;26.33;23.37;;;;;;;3.47;68.39;95993.22;8349764;28;20203;-79
2020/12/12 06:07:32;;;;;;;28.07;25.07;;;;;;;3.42;68.97;95997.72;8350300;28;20224;-80
2020/12/12 06:11:39;;;;;;;27.60;24.60;;;;;;;3.59;68.40;95994.38;8349845;28;20219;-81
2020/12/12 06:15:42;;;;;;;27.73;24.30;;;;;;;3.31;68.49;95985.44;8348865;28;20283;-81
2020/12/12 06:19:46;;;;;;;25.60;22.90;;;;;;;3.38;69.05;96003.91;8348852;28;20712;-81
2020/12/12 06:23:49;;;;;;;24.77;21.93;;;;;;;3.58;68.35;96003.78;8349616;28;20640;-80
2020/12/12 06:27:55;;;;;;;26.07;23.37;;;;;;;3.56;68.26;96003.03;8351670;28;20548;-80
2020/12/12 06:31:57;;;;;;;24.33;21.83;;;;;;;3.42;69.05;96013.09;8352239;28;20185;-81
2020/12/12 06:35:58;;;;;;;25.70;23.03;;;;;;;3.53;68.62;96014.22;8352476;28;20546;-81
2020/12/12 06:40:01;;;;;;;26.50;23.60;;;;;;;3.69;68.38;96016.91;8352061;28;20823;-81
2020/12/12 06:44:04;;;;;;;26.17;23.30;;;;;;;3.64;67.60;96018.84;8365451;28;20192;-81
2020/12/12 06:48:06;;;;;;;27.77;24.37;;;;;;;3.70;67.52;96021.09;8383001;28;20204;-80
2020/12/12 06:52:08;;;;;;;27.00;24.27;;;;;;;3.78;67.16;96030.97;8382867;28;20318;-80
2020/12/12 06:56:11;;;;;;;27.13;23.20;;;;;;;3.71;67.97;96033.03;8383907;28;20204;-81
2020/12/12 07:00:22;;;;;;;27.40;24.50;;;;;;;3.38;68.05;96027.75;8383046;28;20196;-80
2020/12/12 07:04:28;;;;;;;29.30;26.17;;;;;;;3.52;67.84;96040.75;8384888;28;20295;-80
2020/12/12 07:08:31;;;;;;;27.37;24.33;;;;;;;3.56;67.83;96045.69;8384728;28;20211;-81
2020/12/12 07:12:34;;;;;;;28.77;25.43;;;;;;;3.55;68.01;96046.63;8386301;28;20546;-80
2020/12/12 07:16:37;;;;;;;28.10;25.20;;;;;;;3.61;67.36;96052.25;8387183;28;20230;-81
2020/12/12 07:20:40;;;;;;;28.27;25.27;;;;;;;3.61;67.98;96065.06;8387766;28;20341;-81
2020/12/12 07:24:42;;;;;;;30.47;26.37;;;;;;;3.55;67.88;96067.91;8387806;28;20199;-81
2020/12/12 07:28:44;;;;;;;28.17;25.17;;;;;;;3.71;67.48;96065.44;8385595;28;20594;-82
2020/12/12 07:32:47;;;;;;;29.57;26.37;;;;;;;3.68;67.39;96063.88;8404892;28;20196;-82
2020/12/12 07:36:56;;;;;;;27.60;24.60;;;;;;;3.61;67.96;96074.47;8397677;28;20230;-81
2020/12/12 07:40:59;;;;;;;28.83;25.83;;;;;;;3.80;67.09;96075.25;8379205;28;20631;-81
2020/12/12 07:45:11;;;;;;;30.73;26.23;;;;;;;3.57;68.29;96086.59;8382611;28;20196;-82
2020/12/12 07:49:14;;;;;;;26.90;24.10;;;;;;;3.51;68.23;96089.44;8368907;28;20210;-81
2020/12/12 07:53:18;;;;;;;27.70;24.83;;;;;;;3.52;68.23;96094.50;8381174;28;20191;-81
2020/12/12 07:57:19;;;;;;;28.67;25.67;;;;;;;3.59;67.66;96089.91;8375790;28;20581;-80
2020/12/12 08:01:23;;;;;;;28.57;25.37;;;;;;;3.60;67.85;96091.56;8378360;28;20565;-80
2020/12/12 08:05:26;;;;;;;29.00;25.90;;;;;;;3.97;67.00;96087.25;8374535;28;20706;-80
2020/12/12 08:09:28;;;;;;;29.17;25.83;;;;;;;3.96;66.82;96101.00;8383644;28;20249;-80
2020/12/12 08:13:30;;;;;;;30.10;26.33;;;;;;;3.58;68.00;96098.50;8376948;28;20590;-79
2020/12/12 08:17:33;;;;;;;30.13;26.67;;;;;;;3.63;68.05;96091.41;8380570;28;20223;-80
2020/12/12 08:21:36;;;;;;;28.53;25.63;;;;;;;3.75;67.53;96099.41;8389283;28;20203;-80
2020/12/12 08:25:38;;;;;;;34.47;29.40;;;;;;;3.79;67.70;96106.91;8386263;28;20192;-80
2020/12/12 08:29:43;;;;;;;29.47;26.30;;;;;;;4.07;67.22;96114.13;8373935;28;20195;-79
2020/12/12 08:33:46;;;;;;;28.37;25.30;;;;;;;3.99;67.16;96121.31;8368853;28;20203;-79
2020/12/12 08:37:57;;;;;;;28.50;25.40;;;;;;;4.05;67.01;96120.19;8368602;28;20565;-78
2020/12/12 08:41:59;;;;;;;29.73;26.27;;;;;;;4.26;66.70;96126.84;8367293;28;20199;-78
2020/12/12 08:46:02;;;;;;;28.80;25.73;;;;;;;3.78;67.50;96125.72;8367710;28;20211;-78
2020/12/12 08:50:04;;;;;;;28.30;25.33;;;;;;;4.19;67.08;96122.94;8370314;28;20223;-79
2020/12/12 08:54:11;;;;;;;28.73;25.37;;;;;;;3.97;67.07;96132.53;8385611;28;20204;-80
2020/12/12 08:58:13;;;;;;;28.63;25.47;;;;;;;4.06;66.80;96139.81;8390973;28;20207;-79
2020/12/12 09:02:17;;;;;;;27.93;24.93;;;;;;;4.14;66.60;96145.38;8391588;28;20211;-80
2020/12/12 09:06:20;;;;;;;29.13;26.03;;;;;;;3.99;66.58;96151.22;8382577;28;20223;-80
2020/12/12 09:10:23;;;;;;;27.73;24.83;;;;;;;4.10;66.26;96157.50;8381060;28;20219;-79
2020/12/12 09:14:26;;;;;;;32.10;24.87;;;;;;;4.04;66.82;96159.53;8372476;28;20196;-78
2020/12/12 09:18:28;;;;;;;27.57;24.67;;;;;;;4.24;66.28;96164.53;8379709;28;20218;-80
2020/12/12 09:22:29;;;;;;;26.87;23.97;;;;;;;4.08;66.12;96158.50;8385029;28;20230;-80
2020/12/12 09:26:32;;;;;;;28.70;25.40;;;;;;;4.19;65.63;96169.06;8383980;28;20191;-80
2020/12/12 09:30:34;;;;;;;29.90;26.03;;;;;;;4.22;65.82;96174.03;8388792;28;20211;-79
2020/12/12 09:34:37;;;;;;;29.53;25.33;;;;;;;4.11;67.16;96181.38;8391892;28;20208;-79
2020/12/12 09:38:39;;;;;;;28.23;25.23;;;;;;;4.12;66.91;96183.06;8389121;28;20223;-80
2020/12/12 09:42:43;;;;;;;30.93;25.90;;;;;;;4.49;67.65;96176.16;8390920;28;20211;-81
2020/12/12 09:46:47;;;;;;;28.43;25.43;;;;;;;4.15;66.81;96188.03;8393401;28;20204;-80
2020/12/12 09:50:49;;;;;;;28.27;25.27;;;;;;;4.06;67.63;96193.59;8393143;28;20608;-80
2020/12/12 09:54:51;;;;;;;28.43;25.43;;;;;;;4.02;67.03;96189.53;8389545;28;20207;-79
2020/12/12 09:58:54;;;;;;;28.63;25.60;;;;;;;4.23;66.72;96193.63;8387204;28;20215;-80
2020/12/12 10:02:55;;;;;;;30.20;26.83;;;;;;;4.43;66.49;96186.72;8385559;28;20208;-80
2020/12/12 10:06:57;;;;;;;29.60;26.47;;;;;;;4.26;67.18;96197.78;8383308;28;20224;-79
2020/12/12 10:10:59;;;;;;;29.10;25.63;;;;;;;4.44;66.96;96196.06;8377393;28;20203;-79
2020/12/12 10:15:02;;;;;;;28.23;25.17;;;;;;;4.55;66.22;96193.81;8377597;28;20202;-77
2020/12/12 10:19:04;;;;;;;30.97;27.67;;;;;;;4.13;67.94;96196.69;8373843;28;20254;-78
2020/12/12 10:23:06;;;;;;;32.33;28.47;;;;;;;4.20;67.54;96204.00;8381301;28;20223;-79
2020/12/12 10:27:07;;;;;;;29.57;26.37;;;;;;;4.26;68.01;96195.19;8383072;28;20203;-79
2020/12/12 10:31:10;;;;;;;30.20;27.00;;;;;;;4.65;66.66;96191.63;8384203;28;20210;-79
2020/12/12 10:35:12;;;;;;;28.77;25.73;;;;;;;4.54;66.89;96206.72;8381911;28;20188;-79
2020/12/12 10:39:25;;;;;;;29.67;26.43;;;;;;;4.68;66.56;96202.59;8378007;28;20220;-79
2020/12/12 10:43:27;;;;;;;30.93;25.60;;;;;;;4.79;66.59;96211.47;8371698;28;20192;-78
2020/12/12 10:47:30;;;;;;;28.93;25.83;;;;;;;4.72;66.63;96221.19;8375786;28;20215;-79
2020/12/12 10:51:31;;;;;;;30.17;27.03;;;;;;;4.52;67.05;96213.66;8382732;28;20691;-80
2020/12/12 10:55:34;;;;;;;30.83;27.50;;;;;;;4.65;66.78;96224.97;8382889;28;20199;-81
2020/12/12 10:59:36;;;;;;;31.03;27.70;;;;;;;4.82;66.36;96219.84;8384667;28;20243;-80
2020/12/12 11:03:38;;;;;;;31.27;27.60;;;;;;;4.77;66.28;96215.84;8386891;28;20207;-80
2020/12/12 11:07:40;;;;;;;29.93;26.10;;;;;;;4.80;66.45;96218.28;8386800;28;20203;-79
2020/12/12 11:11:42;;;;;;;30.17;26.70;;;;;;;4.96;66.08;96211.47;8388066;28;20215;-80
2020/12/12 11:15:44;;;;;;;30.23;26.97;;;;;;;4.95;65.72;96214.94;8387253;28;20219;-79
2020/12/12 11:19:46;;;;;;;31.87;27.87;;;;;;;4.72;66.98;96225.50;8386803;28;20725;-79
2020/12/12 11:23:48;;;;;;;30.60;27.30;;;;;;;4.53;67.75;96225.56;8388444;28;20203;-80
2020/12/12 11:27:51;;;;;;;30.20;27.00;;;;;;;4.87;66.68;96223.03;8383919;28;20204;-79
2020/12/12 11:31:54;;;;;;;30.43;27.20;;;;;;;4.97;66.29;96225.09;8385983;28;20208;-80
2020/12/12 11:36:07;;;;;;;30.20;26.60;;;;;;;4.94;66.54;96220.97;8387564;28;20655;-79
2020/12/12 11:40:15;;;;;;;29.60;26.50;;;;;;;4.96;66.32;96219.16;8380516;28;20219;-79
2020/12/12 11:44:39;;;;;;;31.57;26.87;;;;;;;4.73;67.60;96227.97;8383221;28;20219;-79
2020/12/12 11:48:44;;;;;;;32.50;27.73;;;;;;;4.99;66.84;96229.28;8383136;28;20327;-79
2020/12/12 11:52:46;;;;;;;30.00;26.80;;;;;;;5.16;66.59;96225.88;8378645;28;20230;-80
2020/12/12 11:56:50;;;;;;;30.57;27.27;;;;;;;4.98;66.54;96225.03;8384687;28;20192;-79
2020/12/12 12:00:52;;;;;;;32.40;28.90;;;;;;;5.11;66.84;96227.81;8378637;28;20202;-79
2020/12/12 12:04:54;;;;;;;31.50;27.53;;;;;;;5.16;66.77;96227.59;8381355;28;20227;-79
2020/12/12 12:09:12;;;;;;;31.67;27.50;;;;;;;5.21;66.57;96230.75;8375180;28;20203;-79
2020/12/12 12:13:14;;;;;;;29.77;26.57;;;;;;;5.31;66.20;96231.94;8341334;28;20208;-79
2020/12/12 12:17:16;;;;;;;32.13;28.30;;;;;;;5.28;66.76;96234.69;8351121;28;20227;-78
2020/12/12 12:21:17;;;;;;;30.33;26.93;;;;;;;5.21;66.86;96235.88;8370496;28;20501;-79
2020/12/12 12:25:20;;;;;;;33.73;29.03;;;;;;;5.20;66.81;96244.50;8370455;28;20200;-80
2020/12/12 12:29:22;;;;;;;31.10;27.70;;;;;;;5.29;66.69;96242.31;8366402;28;20567;-78
2020/12/12 12:33:23;;;;;;;32.33;28.27;;;;;;;5.44;66.42;96243.25;8370292;28;20200;-78
2020/12/12 12:37:26;;;;;;;32.27;28.77;;;;;;;5.26;67.11;96246.75;8370039;28;20421;-78
2020/12/12 12:41:29;;;;;;;31.13;27.80;;;;;;;5.39;66.54;96255.50;8365242;28;20207;-79
2020/12/12 12:45:31;;;;;;;33.30;29.70;;;;;;;5.15;67.54;96264.44;8367514;28;20199;-77
2020/12/12 12:49:32;;;;;;;33.23;29.20;;;;;;;5.31;67.41;96272.19;8365366;28;20223;-78
2020/12/12 12:53:34;;;;;;;32.27;28.77;;;;;;;5.28;67.62;96268.03;8365712;28;20207;-78
2020/12/12 12:57:38;;;;;;;31.37;27.50;;;;;;;5.41;67.37;96269.09;8365599;28;20231;-79
2020/12/12 13:01:39;;;;;;;31.80;28.17;;;;;;;5.34;66.68;96272.03;8358753;28;20203;-78
2020/12/12 13:05:42;;;;;;;30.67;27.40;;;;;;;5.44;67.21;96273.22;8364836;28;20280;-78
2020/12/12 13:09:43;;;;;;;31.93;27.27;;;;;;;5.28;67.76;96276.56;8365156;28;20199;-78
2020/12/12 13:13:46;;;;;;;30.93;27.57;;;;;;;5.58;67.43;96277.66;8363669;28;20192;-78
2020/12/12 13:17:48;;;;;;;31.27;27.87;;;;;;;5.65;66.62;96276.44;8364531;28;20223;-78
2020/12/12 13:21:56;;;;;;;30.90;27.70;;;;;;;5.48;67.41;96290.13;8364662;28;20192;-77
2020/12/12 13:25:58;;;;;;;33.90;26.87;;;;;;;6.65;71.14;96294.28;8377719;28;20215;-79
2020/12/12 13:34:20;;;;;;;28.73;25.63;;;;;;;6.73;64.88;96299.00;8371441;28;20188;-78
2020/12/12 13:38:22;;;;;;;36.73;26.23;;;;;;;6.57;64.58;96304.19;8364494;28;20220;-78
2020/12/12 13:42:23;;;;;;;29.87;26.70;;;;;;;6.27;65.23;96307.50;8364646;28;20667;-78
2020/12/12 13:46:26;;;;;;;29.03;25.90;;;;;;;6.33;65.04;96314.03;8365299;28;20553;-78
2020/12/12 13:50:29;;;;;;;27.67;24.77;;;;;;;6.34;65.67;96318.25;8364148;28;20232;-77
2020/12/12 13:54:31;;;;;;;33.57;27.50;;;;;;;6.20;66.03;96326.72;8363866;28;20200;-77
2020/12/12 13:58:32;;;;;;;31.50;28.10;;;;;;;6.16;66.62;96332.94;8364607;28;20238;-77
2020/12/12 14:02:35;;;;;;;31.97;28.20;;;;;;;6.12;67.13;96339.16;8361357;28;20234;-78
2020/12/12 14:06:37;;;;;;;33.23;28.73;;;;;;;6.19;67.21;96337.91;8364738;28;20220;-77
2020/12/12 14:10:55;;;;;;;32.47;27.97;;;;;;;6.07;67.69;96334.22;8364730;28;20230;-78
2020/12/12 14:23:45;;;;;;;30.27;26.97;;;;;;;6.15;68.54;96359.53;8369020;28;20195;-77
2020/12/12 14:32:08;;;;;;;32.53;28.27;;;;;;;6.11;68.42;96365.75;8370544;28;20191;-78
2020/12/12 14:36:11;;;;;;;34.10;27.73;;;;;;;6.05;68.44;96365.19;8369147;28;20192;-78
2020/12/12 14:40:13;;;;;;;30.37;26.80;;;;;;;5.94;69.40;96372.56;8360721;28;20293;-78
2020/12/12 14:44:14;;;;;;;31.33;28.03;;;;;;;5.98;69.81;96386.13;8342511;28;20200;-76
2020/12/12 14:48:17;;;;;;;32.63;29.13;;;;;;;5.88;70.08;96389.13;8369645;28;20207;-78
2020/12/12 14:52:19;;;;;;;29.30;26.10;;;;;;;6.01;69.66;96397.06;8368826;28;20235;-78
2020/12/12 14:56:21;;;;;;;34.72;31.25;;;;;;;6.34;68.69;96392.81;8370103;28;20422;-78
2020/12/12 15:00:23;;;;;;;33.20;27.63;;;;;;;5.86;70.13;96405.50;8369837;28;20227;-78
2020/12/12 15:04:25;;;;;;;33.77;29.83;;;;;;;5.87;70.03;96409.75;8366388;28;20211;-78
2020/12/12 15:08:28;;;;;;;34.60;30.93;;;;;;;5.72;69.75;96415.66;8356360;28;20549;-78
2020/12/12 15:12:30;;;;;;;36.20;31.63;;;;;;;5.59;71.28;96421.38;8369423;28;20207;-78
2020/12/12 15:16:32;;;;;;;36.27;32.17;;;;;;;5.84;69.92;96420.19;8369115;28;20660;-78
2020/12/12 15:20:40;;;;;;;36.30;31.87;;;;;;;5.87;70.16;96427.75;8369069;28;20675;-78
2020/12/12 15:24:53;;;;;;;36.03;32.17;;;;;;;5.80;70.22;96426.38;8368308;28;20422;-78
2020/12/12 15:28:54;;;;;;;38.07;31.23;;;;;;;5.54;70.62;96433.63;8368303;28;20214;-78
2020/12/12 15:32:56;;;;;;;34.10;29.27;;;;;;;5.63;70.61;96434.91;8368753;28;20216;-78
2020/12/12 15:36:58;;;;;;;32.60;28.47;;;;;;;5.62;70.81;96443.53;8368429;28;20195;-78
2020/12/12 15:41:00;;;;;;;31.23;27.00;;;;;;;5.70;70.08;96449.13;8368161;28;20270;-78
2020/12/12 15:45:03;;;;;;;29.10;26.10;;;;;;;5.83;69.83;96454.50;8368956;28;20192;-78
2020/12/12 15:49:07;;;;;;;32.60;26.60;;;;;;;5.64;70.24;96460.53;8357165;28;20196;-78
2020/12/12 15:53:11;;;;;;;29.57;26.37;;;;;;;5.82;70.05;96460.53;8322199;28;20235;-78
2020/12/12 15:57:14;;;;;;;30.50;27.07;;;;;;;5.75;70.44;96466.88;8310748;28;20201;-76
2020/12/12 16:01:16;;;;;;;35.67;28.93;;;;;;;5.68;70.13;96469.75;8325044;28;20255;-79
2020/12/12 16:05:18;;;;;;;34.97;29.97;;;;;;;5.62;70.77;96467.47;8334159;28;20499;-77
2020/12/12 16:09:20;;;;;;;34.17;28.57;;;;;;;5.93;69.98;96476.25;8331013;28;20209;-77
2020/12/12 16:13:24;;;;;;;31.60;27.73;;;;;;;5.96;69.83;96483.00;8333094;28;20212;-77
2020/12/12 16:17:26;;;;;;;31.63;27.20;;;;;;;5.86;69.75;96492.88;8334773;28;20318;-77
2020/12/12 16:21:29;;;;;;;33.87;27.70;;;;;;;5.92;69.47;96504.59;8310994;28;20275;-77
2020/12/12 16:25:31;;;;;;;28.63;25.53;;;;;;;5.87;69.86;96505.66;8328487;28;20607;-77
2020/12/12 16:29:34;;;;;;;30.97;27.03;;;;;;;5.88;69.55;96502.19;8334017;28;20208;-77
2020/12/12 16:33:36;;;;;;;28.67;25.53;;;;;;;5.53;70.68;96511.56;8301711;28;20606;-77
2020/12/12 16:37:38;;;;;;;29.07;26.03;;;;;;;5.89;69.66;96513.28;8300599;28;20268;-77
2020/12/12 16:41:40;;;;;;;28.20;23.97;;;;;;;5.98;69.40;96512.88;8302494;28;20216;-76
2020/12/12 16:45:43;;;;;;;27.93;24.90;;;;;;;5.91;69.85;96524.31;8313718;28;20201;-77
2020/12/12 16:49:45;;;;;;;30.30;25.47;;;;;;;5.88;69.95;96529.59;8335654;28;20231;-77
2020/12/12 16:53:59;;;;;;;32.50;27.07;;;;;;;5.88;69.68;96533.00;8366187;28;20202;-77
2020/12/12 16:58:02;;;;;;;29.07;25.83;;;;;;;5.86;69.49;96534.81;8361377;28;20227;-78
2020/12/12 17:02:04;;;;;;;32.97;27.17;;;;;;;5.98;69.61;96538.56;8361610;28;20240;-77
2020/12/12 17:06:06;;;;;;;28.20;24.63;;;;;;;6.19;68.70;96548.72;8365285;28;20642;-78
2020/12/12 17:10:08;;;;;;;37.05;33.08;;;;;;;6.47;67.54;96545.56;8368366;28;20445;-78
2020/12/12 17:14:10;;;;;;;34.87;29.93;;;;;;;6.02;69.03;96544.38;8366157;28;20557;-78
2020/12/12 17:18:13;;;;;;;33.73;29.00;;;;;;;6.07;68.89;96558.69;8369618;28;20675;-79
2020/12/12 17:22:16;;;;;;;33.33;28.30;;;;;;;6.01;68.94;96553.00;8378127;28;20200;-79
2020/12/12 17:26:17;;;;;;;32.30;27.03;;;;;;;6.07;69.08;96548.41;8368378;28;20207;-78
2020/12/12 17:30:19;;;;;;;34.17;28.40;;;;;;;6.12;68.56;96563.59;8365112;28;20215;-78
2020/12/12 17:34:23;;;;;;;31.63;26.97;;;;;;;6.03;69.19;96557.13;8366569;28;20620;-78
2020/12/12 17:38:25;;;;;;;28.63;25.53;;;;;;;6.23;68.47;96568.22;8368405;28;20224;-78
2020/12/12 17:42:27;;;;;;;31.63;27.00;;;;;;;5.99;68.93;96572.78;8366612;28;20203;-78
2020/12/12 17:46:29;;;;;;;32.67;28.33;;;;;;;6.03;68.76;96582.84;8368022;28;20211;-78
2020/12/12 17:50:32;;;;;;;33.87;27.67;;;;;;;5.88;69.68;96579.25;8371148;28;20729;-79
2020/12/12 17:54:33;;;;;;;34.53;28.90;;;;;;;5.92;69.24;96584.22;8371665;28;20192;-79
2020/12/12 17:58:35;;;;;;;34.80;29.97;;;;;;;5.97;69.72;96579.75;8374651;28;20224;-78
2020/12/12 18:02:37;;;;;;;33.13;29.50;;;;;;;5.94;69.75;96595.28;8370824;28;20231;-77
2020/12/12 18:06:41;;;;;;;41.60;33.47;;;;;;;5.64;70.48;96588.94;8370954;28;20580;-78
2020/12/12 18:10:43;;;;;;;37.10;32.33;;;;;;;5.59;71.76;96587.50;8371484;28;20211;-78
2020/12/12 18:14:44;;;;;;;35.50;29.70;;;;;;;5.70;71.61;96587.00;8371027;28;20200;-78
2020/12/12 18:18:46;;;;;;;37.00;31.93;;;;;;;5.90;70.94;96601.47;8371492;28;20607;-78
2020/12/12 18:22:49;;;;;;;37.13;31.07;;;;;;;5.94;70.60;96600.41;8371020;28;20558;-78
2020/12/12 18:26:53;;;;;;;40.27;32.60;;;;;;;5.71;71.46;96607.47;8373619;28;20195;-79
2020/12/12 18:30:55;;;;;;;35.23;30.90;;;;;;;5.87;70.88;96608.41;8373777;28;20195;-79
2020/12/12 18:34:57;;;;;;;37.30;32.93;;;;;;;6.01;70.69;96615.50;8371396;28;20559;-79
2020/12/12 18:38:59;;;;;;;49.53;39.40;;;;;;;6.04;70.62;96617.94;8371384;28;20220;-79
2020/12/12 18:43:03;;;;;;;45.33;38.97;;;;;;;5.96;70.48;96621.75;8372871;28;20199;-79
2020/12/12 18:47:05;;;;;;;49.73;40.53;;;;;;;6.10;70.31;96624.50;8372115;28;20196;-79
2020/12/12 18:51:08;;;;;;;48.43;40.20;;;;;;;6.10;70.18;96629.66;8371175;28;20404;-79
2020/12/12 18:55:11;;;;;;;37.33;32.07;;;;;;;5.94;71.14;96637.25;8370406;28;20576;-78
2020/12/12 18:59:13;;;;;;;32.37;28.87;;;;;;;5.97;71.01;96637.09;8369735;28;20231;-79
2020/12/12 19:03:15;;;;;;;42.63;32.97;;;;;;;5.92;71.19;96641.63;8374869;28;20207;-78
2020/12/12 19:07:18;;;;;;;39.07;31.70;;;;;;;5.89;71.43;96641.75;8374453;28;20702;-79